sensor_id;sensor_type;location;lat;lon;timestamp;P1;durP1;ratioP1;P2;durP2;ratioP2
75687;SDS011;64300;45.034;38.910;2022-10-23T00:00:11;15.45;;;6.00;;
75687;SDS011;64300;45.034;38.910;2022-10-23T00:02:37;10.55;;;5.80;;
75687;SDS011;64300;45.034;38.910;2022-10-23T00:07:28;13.13;;;5.75;;
75687;SDS011;64300;45.034;38.910;2022-10-23T00:12:20;10.40;;;5.53;;
75687;SDS011;64300;45.034;38.910;2022-10-23T00:17:12;10.52;;;6.15;;
75687;SDS011;64300;45.034;38.910;2022-10-23T00:22:04;15.75;;;5.85;;
75687;SDS011;64300;45.034;38.910;2022-10-23T00:26:55;16.42;;;6.28;;
75687;SDS011;64300;45.034;38.910;2022-10-23T00:29:21;11.32;;;5.90;;
75687;SDS011;64300;45.034;38.910;2022-10-23T00:31:48;12.15;;;6.00;;
75687;SDS011;64300;45.034;38.910;2022-10-23T00:34:19;10.35;;;5.93;;
75687;SDS011;64300;45.034;38.910;2022-10-23T00:36:45;13.07;;;6.43;;
75687;SDS011;64300;45.034;38.910;2022-10-23T00:41:36;11.05;;;5.90;;
75687;SDS011;64300;45.034;38.910;2022-10-23T00:46:55;12.38;;;6.57;;
75687;SDS011;64300;45.034;38.910;2022-10-23T00:49:21;15.85;;;7.03;;
75687;SDS011;64300;45.034;38.910;2022-10-23T00:52:07;10.95;;;6.50;;
75687;SDS011;64300;45.034;38.910;2022-10-23T00:54:36;13.98;;;6.75;;
75687;SDS011;64300;45.034;38.910;2022-10-23T00:57:05;14.05;;;7.70;;
75687;SDS011;64300;45.034;38.910;2022-10-23T00:59:35;15.00;;;7.53;;
75687;SDS011;64300;45.034;38.910;2022-10-23T01:02:02;11.88;;;7.35;;
75687;SDS011;64300;45.034;38.910;2022-10-23T01:04:30;14.48;;;6.60;;
75687;SDS011;64300;45.034;38.910;2022-10-23T01:09:58;16.05;;;6.50;;
75687;SDS011;64300;45.034;38.910;2022-10-23T01:15:36;11.27;;;7.03;;
75687;SDS011;64300;45.034;38.910;2022-10-23T01:21:30;13.43;;;7.60;;
75687;SDS011;64300;45.034;38.910;2022-10-23T01:24:01;13.70;;;7.63;;
75687;SDS011;64300;45.034;38.910;2022-10-23T01:26:49;17.38;;;7.70;;
75687;SDS011;64300;45.034;38.910;2022-10-23T01:29:38;13.13;;;6.88;;
75687;SDS011;64300;45.034;38.910;2022-10-23T01:32:15;15.02;;;6.65;;
75687;SDS011;64300;45.034;38.910;2022-10-23T01:35:39;11.30;;;6.82;;
75687;SDS011;64300;45.034;38.910;2022-10-23T01:38:03;18.25;;;7.88;;
75687;SDS011;64300;45.034;38.910;2022-10-23T01:40:36;12.80;;;6.47;;
75687;SDS011;64300;45.034;38.910;2022-10-23T01:43:31;12.15;;;6.65;;
75687;SDS011;64300;45.034;38.910;2022-10-23T01:46:19;13.30;;;6.97;;
75687;SDS011;64300;45.034;38.910;2022-10-23T01:48:50;11.80;;;6.63;;
75687;SDS011;64300;45.034;38.910;2022-10-23T01:51:19;13.32;;;6.80;;
75687;SDS011;64300;45.034;38.910;2022-10-23T01:53:48;15.57;;;6.53;;
75687;SDS011;64300;45.034;38.910;2022-10-23T01:56:18;15.05;;;6.45;;
75687;SDS011;64300;45.034;38.910;2022-10-23T01:58:49;13.32;;;6.57;;
75687;SDS011;64300;45.034;38.910;2022-10-23T02:01:20;12.63;;;6.25;;
75687;SDS011;64300;45.034;38.910;2022-10-23T02:03:51;13.85;;;6.15;;
75687;SDS011;64300;45.034;38.910;2022-10-23T02:06:18;15.75;;;6.57;;
75687;SDS011;64300;45.034;38.910;2022-10-23T02:11:14;11.20;;;6.00;;
75687;SDS011;64300;45.034;38.910;2022-10-23T02:16:40;9.93;;;5.50;;
75687;SDS011;64300;45.034;38.910;2022-10-23T02:19:26;11.90;;;5.90;;
75687;SDS011;64300;45.034;38.910;2022-10-23T02:22:09;11.38;;;5.78;;
75687;SDS011;64300;45.034;38.910;2022-10-23T02:24:43;13.30;;;6.00;;
75687;SDS011;64300;45.034;38.910;2022-10-23T02:27:24;14.25;;;5.55;;
75687;SDS011;64300;45.034;38.910;2022-10-23T02:30:00;11.45;;;6.38;;
75687;SDS011;64300;45.034;38.910;2022-10-23T02:32:30;11.23;;;5.95;;
75687;SDS011;64300;45.034;38.910;2022-10-23T02:34:58;10.25;;;5.65;;
75687;SDS011;64300;45.034;38.910;2022-10-23T02:37:24;12.93;;;6.25;;
75687;SDS011;64300;45.034;38.910;2022-10-23T02:42:41;11.63;;;6.90;;
75687;SDS011;64300;45.034;38.910;2022-10-23T02:48:06;15.77;;;5.82;;
75687;SDS011;64300;45.034;38.910;2022-10-23T02:51:05;10.15;;;5.50;;
75687;SDS011;64300;45.034;38.910;2022-10-23T02:53:46;11.90;;;5.53;;
75687;SDS011;64300;45.034;38.910;2022-10-23T03:00:04;9.60;;;4.45;;
75687;SDS011;64300;45.034;38.910;2022-10-23T03:03:01;9.40;;;5.00;;
75687;SDS011;64300;45.034;38.910;2022-10-23T03:05:01;8.77;;;4.47;;
75687;SDS011;64300;45.034;38.910;2022-10-23T03:07:31;10.00;;;4.30;;
75687;SDS011;64300;45.034;38.910;2022-10-23T03:10:03;8.40;;;4.25;;
75687;SDS011;64300;45.034;38.910;2022-10-23T03:12:30;8.00;;;4.55;;
75687;SDS011;64300;45.034;38.910;2022-10-23T03:14:57;12.48;;;4.75;;
75687;SDS011;64300;45.034;38.910;2022-10-23T03:17:23;8.65;;;4.38;;
75687;SDS011;64300;45.034;38.910;2022-10-23T03:19:53;7.22;;;4.00;;
75687;SDS011;64300;45.034;38.910;2022-10-23T03:24:50;7.78;;;4.50;;
75687;SDS011;64300;45.034;38.910;2022-10-23T03:29:41;7.05;;;3.63;;
75687;SDS011;64300;45.034;38.910;2022-10-23T03:34:33;7.95;;;3.33;;
75687;SDS011;64300;45.034;38.910;2022-10-23T03:37:02;7.40;;;3.60;;
75687;SDS011;64300;45.034;38.910;2022-10-23T03:41:55;9.20;;;3.58;;
75687;SDS011;64300;45.034;38.910;2022-10-23T03:46:46;6.20;;;3.50;;
75687;SDS011;64300;45.034;38.910;2022-10-23T03:49:12;6.00;;;3.30;;
75687;SDS011;64300;45.034;38.910;2022-10-23T03:51:42;5.72;;;3.05;;
75687;SDS011;64300;45.034;38.910;2022-10-23T03:54:09;7.75;;;3.58;;
75687;SDS011;64300;45.034;38.910;2022-10-23T03:56:36;7.70;;;3.35;;
75687;SDS011;64300;45.034;38.910;2022-10-23T03:59:02;9.32;;;3.25;;
75687;SDS011;64300;45.034;38.910;2022-10-23T04:01:28;6.07;;;3.10;;
75687;SDS011;64300;45.034;38.910;2022-10-23T04:03:54;6.18;;;2.92;;
75687;SDS011;64300;45.034;38.910;2022-10-23T04:06:22;6.22;;;2.65;;
75687;SDS011;64300;45.034;38.910;2022-10-23T04:08:53;4.88;;;2.38;;
75687;SDS011;64300;45.034;38.910;2022-10-23T04:11:19;6.28;;;2.50;;
75687;SDS011;64300;45.034;38.910;2022-10-23T04:13:48;6.70;;;2.60;;
75687;SDS011;64300;45.034;38.910;2022-10-23T04:16:14;4.97;;;2.58;;
75687;SDS011;64300;45.034;38.910;2022-10-23T04:18:42;5.80;;;2.80;;
75687;SDS011;64300;45.034;38.910;2022-10-23T04:21:09;5.43;;;2.60;;
75687;SDS011;64300;45.034;38.910;2022-10-23T04:23:37;5.05;;;2.55;;
75687;SDS011;64300;45.034;38.910;2022-10-23T04:26:04;4.55;;;2.53;;
75687;SDS011;64300;45.034;38.910;2022-10-23T04:28:30;5.43;;;2.65;;
75687;SDS011;64300;45.034;38.910;2022-10-23T04:30:56;4.75;;;2.63;;
75687;SDS011;64300;45.034;38.910;2022-10-23T04:35:50;4.88;;;2.50;;
75687;SDS011;64300;45.034;38.910;2022-10-23T04:40:42;9.43;;;2.88;;
75687;SDS011;64300;45.034;38.910;2022-10-23T04:45:36;4.40;;;2.22;;
75687;SDS011;64300;45.034;38.910;2022-10-23T04:50:40;4.97;;;2.45;;
75687;SDS011;64300;45.034;38.910;2022-10-23T04:53:27;6.60;;;2.58;;
75687;SDS011;64300;45.034;38.910;2022-10-23T04:56:14;10.15;;;3.38;;
75687;SDS011;64300;45.034;38.910;2022-10-23T04:58:56;12.02;;;2.92;;
75687;SDS011;64300;45.034;38.910;2022-10-23T05:01:22;4.55;;;2.13;;
75687;SDS011;64300;45.034;38.910;2022-10-23T05:03:48;4.45;;;1.95;;
75687;SDS011;64300;45.034;38.910;2022-10-23T05:06:14;3.90;;;1.90;;
75687;SDS011;64300;45.034;38.910;2022-10-23T05:08:59;4.32;;;1.95;;
75687;SDS011;64300;45.034;38.910;2022-10-23T05:11:39;5.30;;;2.15;;
75687;SDS011;64300;45.034;38.910;2022-10-23T05:14:07;4.97;;;2.15;;
75687;SDS011;64300;45.034;38.910;2022-10-23T05:19:52;4.80;;;2.00;;
75687;SDS011;64300;45.034;38.910;2022-10-23T05:22:21;7.47;;;2.00;;
75687;SDS011;64300;45.034;38.910;2022-10-23T05:24:51;5.93;;;2.20;;
75687;SDS011;64300;45.034;38.910;2022-10-23T05:27:24;5.05;;;2.03;;
75687;SDS011;64300;45.034;38.910;2022-10-23T05:29:52;5.40;;;2.28;;
75687;SDS011;64300;45.034;38.910;2022-10-23T05:32:22;7.05;;;2.20;;
75687;SDS011;64300;45.034;38.910;2022-10-23T05:34:51;5.78;;;2.30;;
75687;SDS011;64300;45.034;38.910;2022-10-23T05:37:18;5.88;;;2.95;;
75687;SDS011;64300;45.034;38.910;2022-10-23T05:39:44;6.90;;;2.17;;
75687;SDS011;64300;45.034;38.910;2022-10-23T05:42:13;3.72;;;1.88;;
75687;SDS011;64300;45.034;38.910;2022-10-23T05:44:40;4.03;;;2.10;;
75687;SDS011;64300;45.034;38.910;2022-10-23T05:47:19;6.25;;;2.28;;
75687;SDS011;64300;45.034;38.910;2022-10-23T05:50:10;5.35;;;1.85;;
75687;SDS011;64300;45.034;38.910;2022-10-23T05:52:51;3.45;;;1.60;;
75687;SDS011;64300;45.034;38.910;2022-10-23T05:55:47;6.35;;;1.98;;
75687;SDS011;64300;45.034;38.910;2022-10-23T05:58:32;3.83;;;1.83;;
75687;SDS011;64300;45.034;38.910;2022-10-23T06:01:13;6.15;;;2.30;;
75687;SDS011;64300;45.034;38.910;2022-10-23T06:04:03;5.25;;;1.83;;
75687;SDS011;64300;45.034;38.910;2022-10-23T06:06:48;6.72;;;2.67;;
75687;SDS011;64300;45.034;38.910;2022-10-23T06:09:16;4.88;;;1.75;;
75687;SDS011;64300;45.034;38.910;2022-10-23T06:11:44;4.78;;;1.88;;
75687;SDS011;64300;45.034;38.910;2022-10-23T06:14:17;4.40;;;2.10;;
75687;SDS011;64300;45.034;38.910;2022-10-23T06:16:43;5.32;;;1.80;;
75687;SDS011;64300;45.034;38.910;2022-10-23T06:19:10;4.43;;;2.20;;
75687;SDS011;64300;45.034;38.910;2022-10-23T06:21:38;3.72;;;1.77;;
75687;SDS011;64300;45.034;38.910;2022-10-23T06:24:07;4.13;;;1.95;;
75687;SDS011;64300;45.034;38.910;2022-10-23T06:26:46;3.15;;;1.60;;
75687;SDS011;64300;45.034;38.910;2022-10-23T06:29:20;5.80;;;2.40;;
75687;SDS011;64300;45.034;38.910;2022-10-23T06:31:48;3.97;;;1.80;;
75687;SDS011;64300;45.034;38.910;2022-10-23T06:34:16;3.53;;;1.73;;
75687;SDS011;64300;45.034;38.910;2022-10-23T06:36:44;5.50;;;1.38;;
75687;SDS011;64300;45.034;38.910;2022-10-23T06:39:25;4.63;;;1.55;;
75687;SDS011;64300;45.034;38.910;2022-10-23T06:41:59;8.98;;;1.73;;
75687;SDS011;64300;45.034;38.910;2022-10-23T06:45:04;7.93;;;1.55;;
75687;SDS011;64300;45.034;38.910;2022-10-23T06:47:51;3.45;;;1.63;;
75687;SDS011;64300;45.034;38.910;2022-10-23T06:50:52;6.70;;;1.70;;
75687;SDS011;64300;45.034;38.910;2022-10-23T06:53:25;3.47;;;1.60;;
75687;SDS011;64300;45.034;38.910;2022-10-23T06:56:04;4.47;;;1.40;;
75687;SDS011;64300;45.034;38.910;2022-10-23T06:58:34;3.35;;;1.27;;
75687;SDS011;64300;45.034;38.910;2022-10-23T07:01:10;5.85;;;1.50;;
75687;SDS011;64300;45.034;38.910;2022-10-23T07:03:39;4.30;;;1.70;;
75687;SDS011;64300;45.034;38.910;2022-10-23T07:06:07;7.90;;;1.60;;
75687;SDS011;64300;45.034;38.910;2022-10-23T07:08:35;6.45;;;1.63;;
75687;SDS011;64300;45.034;38.910;2022-10-23T07:11:09;6.00;;;1.50;;
75687;SDS011;64300;45.034;38.910;2022-10-23T07:13:36;5.13;;;1.50;;
75687;SDS011;64300;45.034;38.910;2022-10-23T07:16:17;3.80;;;1.40;;
75687;SDS011;64300;45.034;38.910;2022-10-23T07:18:45;9.23;;;1.75;;
75687;SDS011;64300;45.034;38.910;2022-10-23T07:21:28;5.07;;;1.63;;
75687;SDS011;64300;45.034;38.910;2022-10-23T07:24:08;6.88;;;1.58;;
75687;SDS011;64300;45.034;38.910;2022-10-23T07:26:38;3.92;;;1.70;;
75687;SDS011;64300;45.034;38.910;2022-10-23T07:29:06;5.15;;;1.80;;
75687;SDS011;64300;45.034;38.910;2022-10-23T07:31:33;3.67;;;1.70;;
75687;SDS011;64300;45.034;38.910;2022-10-23T07:37:31;4.03;;;1.77;;
75687;SDS011;64300;45.034;38.910;2022-10-23T07:40:00;6.72;;;1.83;;
75687;SDS011;64300;45.034;38.910;2022-10-23T07:42:26;6.65;;;1.88;;
75687;SDS011;64300;45.034;38.910;2022-10-23T07:44:52;7.07;;;1.45;;
75687;SDS011;64300;45.034;38.910;2022-10-23T07:47:23;4.07;;;1.50;;
75687;SDS011;64300;45.034;38.910;2022-10-23T07:49:50;8.57;;;2.08;;
75687;SDS011;64300;45.034;38.910;2022-10-23T07:52:18;3.42;;;1.50;;
75687;SDS011;64300;45.034;38.910;2022-10-23T07:57:31;4.45;;;1.90;;
75687;SDS011;64300;45.034;38.910;2022-10-23T08:00:08;7.22;;;2.88;;
75687;SDS011;64300;45.034;38.910;2022-10-23T08:02:38;10.20;;;4.50;;
75687;SDS011;64300;45.034;38.910;2022-10-23T08:05:06;7.55;;;1.70;;
75687;SDS011;64300;45.034;38.910;2022-10-23T08:07:39;5.18;;;2.20;;
75687;SDS011;64300;45.034;38.910;2022-10-23T08:10:05;4.68;;;2.25;;
75687;SDS011;64300;45.034;38.910;2022-10-23T08:12:33;7.30;;;2.45;;
75687;SDS011;64300;45.034;38.910;2022-10-23T08:14:59;7.57;;;1.90;;
75687;SDS011;64300;45.034;38.910;2022-10-23T08:17:34;7.80;;;2.42;;
75687;SDS011;64300;45.034;38.910;2022-10-23T08:20:15;7.35;;;2.20;;
75687;SDS011;64300;45.034;38.910;2022-10-23T08:22:44;4.07;;;2.00;;
75687;SDS011;64300;45.034;38.910;2022-10-23T08:25:16;6.80;;;2.17;;
75687;SDS011;64300;45.034;38.910;2022-10-23T08:27:42;9.30;;;2.17;;
75687;SDS011;64300;45.034;38.910;2022-10-23T08:30:08;4.15;;;1.75;;
75687;SDS011;64300;45.034;38.910;2022-10-23T08:32:36;9.40;;;2.00;;
75687;SDS011;64300;45.034;38.910;2022-10-23T08:35:04;4.45;;;2.25;;
75687;SDS011;64300;45.034;38.910;2022-10-23T08:37:35;6.32;;;1.80;;
75687;SDS011;64300;45.034;38.910;2022-10-23T08:40:02;4.25;;;1.60;;
75687;SDS011;64300;45.034;38.910;2022-10-23T08:42:48;5.13;;;1.73;;
75687;SDS011;64300;45.034;38.910;2022-10-23T08:45:41;4.72;;;1.52;;
75687;SDS011;64300;45.034;38.910;2022-10-23T08:48:48;4.00;;;1.90;;
75687;SDS011;64300;45.034;38.910;2022-10-23T08:51:46;6.97;;;1.98;;
75687;SDS011;64300;45.034;38.910;2022-10-23T08:54:20;5.75;;;1.80;;
75687;SDS011;64300;45.034;38.910;2022-10-23T08:57:23;5.85;;;2.08;;
75687;SDS011;64300;45.034;38.910;2022-10-23T09:02:37;4.20;;;1.80;;
75687;SDS011;64300;45.034;38.910;2022-10-23T09:05:26;4.85;;;1.90;;
75687;SDS011;64300;45.034;38.910;2022-10-23T09:08:02;4.70;;;1.50;;
75687;SDS011;64300;45.034;38.910;2022-10-23T09:10:57;3.35;;;1.30;;
75687;SDS011;64300;45.034;38.910;2022-10-23T09:16:25;3.50;;;1.40;;
75687;SDS011;64300;45.034;38.910;2022-10-23T09:19:21;4.65;;;1.65;;
75687;SDS011;64300;45.034;38.910;2022-10-23T09:21:52;4.35;;;1.63;;
75687;SDS011;64300;45.034;38.910;2022-10-23T09:24:21;6.47;;;1.80;;
75687;SDS011;64300;45.034;38.910;2022-10-23T09:26:50;6.82;;;2.38;;
75687;SDS011;64300;45.034;38.910;2022-10-23T09:29:21;6.85;;;2.45;;
75687;SDS011;64300;45.034;38.910;2022-10-23T09:31:51;4.95;;;2.00;;
75687;SDS011;64300;45.034;38.910;2022-10-23T09:34:23;5.70;;;2.25;;
75687;SDS011;64300;45.034;38.910;2022-10-23T09:36:52;5.38;;;2.30;;
75687;SDS011;64300;45.034;38.910;2022-10-23T09:39:24;4.93;;;2.05;;
75687;SDS011;64300;45.034;38.910;2022-10-23T09:41:54;4.80;;;1.83;;
75687;SDS011;64300;45.034;38.910;2022-10-23T09:44:22;5.90;;;1.95;;
75687;SDS011;64300;45.034;38.910;2022-10-23T09:46:55;6.75;;;1.83;;
75687;SDS011;64300;45.034;38.910;2022-10-23T09:49:30;4.63;;;1.60;;
75687;SDS011;64300;45.034;38.910;2022-10-23T09:54:24;5.78;;;1.77;;
75687;SDS011;64300;45.034;38.910;2022-10-23T09:57:00;8.05;;;1.90;;
75687;SDS011;64300;45.034;38.910;2022-10-23T09:59:48;7.53;;;1.48;;
75687;SDS011;64300;45.034;38.910;2022-10-23T10:02:25;5.05;;;1.90;;
75687;SDS011;64300;45.034;38.910;2022-10-23T10:05:23;3.65;;;1.30;;
75687;SDS011;64300;45.034;38.910;2022-10-23T10:10:41;5.43;;;2.20;;
75687;SDS011;64300;45.034;38.910;2022-10-23T10:15:46;6.80;;;2.45;;
75687;SDS011;64300;45.034;38.910;2022-10-23T10:18:20;8.15;;;3.10;;
75687;SDS011;64300;45.034;38.910;2022-10-23T10:20:58;8.80;;;2.53;;
75687;SDS011;64300;45.034;38.910;2022-10-23T10:23:52;7.18;;;2.70;;
75687;SDS011;64300;45.034;38.910;2022-10-23T10:37:24;6.65;;;2.80;;
75687;SDS011;64300;45.034;38.910;2022-10-23T10:56:40;15.18;;;6.28;;
75687;SDS011;64300;45.034;38.910;2022-10-23T11:01:48;18.33;;;7.97;;
75687;SDS011;64300;45.034;38.910;2022-10-23T11:04:38;20.70;;;8.80;;
75687;SDS011;64300;45.034;38.910;2022-10-23T11:07:10;22.67;;;8.75;;
75687;SDS011;64300;45.034;38.910;2022-10-23T11:09:39;24.25;;;9.43;;
75687;SDS011;64300;45.034;38.910;2022-10-23T11:12:13;24.40;;;10.48;;
75687;SDS011;64300;45.034;38.910;2022-10-23T11:14:47;24.50;;;9.48;;
75687;SDS011;64300;45.034;38.910;2022-10-23T11:30:41;4.45;;;1.13;;
75687;SDS011;64300;45.034;38.910;2022-10-23T11:39:20;3.38;;;1.02;;
75687;SDS011;64300;45.034;38.910;2022-10-23T11:41:54;4.93;;;1.23;;
75687;SDS011;64300;45.034;38.910;2022-10-23T11:44:38;4.78;;;0.85;;
75687;SDS011;64300;45.034;38.910;2022-10-23T11:52:33;4.53;;;1.30;;
75687;SDS011;64300;45.034;38.910;2022-10-23T11:55:15;4.90;;;1.10;;
75687;SDS011;64300;45.034;38.910;2022-10-23T12:00:38;7.65;;;1.15;;
75687;SDS011;64300;45.034;38.910;2022-10-23T12:03:16;4.70;;;1.15;;
75687;SDS011;64300;45.034;38.910;2022-10-23T12:05:54;5.00;;;1.13;;
75687;SDS011;64300;45.034;38.910;2022-10-23T12:08:24;5.00;;;1.10;;
75687;SDS011;64300;45.034;38.910;2022-10-23T12:10:52;6.57;;;1.00;;
75687;SDS011;64300;45.034;38.910;2022-10-23T12:16:04;6.70;;;1.17;;
75687;SDS011;64300;45.034;38.910;2022-10-23T12:18:31;7.65;;;1.40;;
75687;SDS011;64300;45.034;38.910;2022-10-23T12:20:59;7.05;;;1.50;;
75687;SDS011;64300;45.034;38.910;2022-10-23T12:34:55;6.13;;;1.75;;
75687;SDS011;64300;45.034;38.910;2022-10-23T12:37:45;5.30;;;1.38;;
75687;SDS011;64300;45.034;38.910;2022-10-23T12:40:34;4.68;;;1.38;;
75687;SDS011;64300;45.034;38.910;2022-10-23T12:43:00;5.03;;;1.70;;
75687;SDS011;64300;45.034;38.910;2022-10-23T12:45:30;6.32;;;2.30;;
75687;SDS011;64300;45.034;38.910;2022-10-23T12:51:00;8.32;;;2.88;;
75687;SDS011;64300;45.034;38.910;2022-10-23T12:53:26;8.95;;;4.22;;
75687;SDS011;64300;45.034;38.910;2022-10-23T12:55:59;12.55;;;4.95;;
75687;SDS011;64300;45.034;38.910;2022-10-23T12:58:30;10.25;;;3.92;;
75687;SDS011;64300;45.034;38.910;2022-10-23T13:01:02;15.10;;;5.20;;
75687;SDS011;64300;45.034;38.910;2022-10-23T13:03:46;12.55;;;5.95;;
75687;SDS011;64300;45.034;38.910;2022-10-23T13:06:13;16.15;;;7.03;;
75687;SDS011;64300;45.034;38.910;2022-10-23T13:09:06;20.98;;;9.77;;
75687;SDS011;64300;45.034;38.910;2022-10-23T13:11:56;27.52;;;11.43;;
75687;SDS011;64300;45.034;38.910;2022-10-23T13:14:54;27.60;;;12.23;;
75687;SDS011;64300;45.034;38.910;2022-10-23T13:20:35;47.30;;;20.42;;
75687;SDS011;64300;45.034;38.910;2022-10-23T13:27:23;61.40;;;24.63;;
75687;SDS011;64300;45.034;38.910;2022-10-23T13:29:59;57.50;;;23.38;;
75687;SDS011;64300;45.034;38.910;2022-10-23T13:32:27;55.83;;;24.65;;
75687;SDS011;64300;45.034;38.910;2022-10-23T13:34:55;63.60;;;26.95;;
75687;SDS011;64300;45.034;38.910;2022-10-23T13:37:28;46.20;;;19.83;;
75687;SDS011;64300;45.034;38.910;2022-10-23T13:39:58;45.22;;;19.95;;
75687;SDS011;64300;45.034;38.910;2022-10-23T13:42:48;34.00;;;14.50;;
75687;SDS011;64300;45.034;38.910;2022-10-23T13:45:18;35.05;;;15.88;;
75687;SDS011;64300;45.034;38.910;2022-10-23T13:47:49;24.05;;;8.02;;
75687;SDS011;64300;45.034;38.910;2022-10-23T13:50:16;21.45;;;6.85;;
75687;SDS011;64300;45.034;38.910;2022-10-23T13:52:43;10.10;;;4.10;;
75687;SDS011;64300;45.034;38.910;2022-10-23T14:00:16;8.10;;;2.75;;
75687;SDS011;64300;45.034;38.910;2022-10-23T14:02:48;6.18;;;2.70;;
75687;SDS011;64300;45.034;38.910;2022-10-23T14:05:16;10.20;;;2.47;;
75687;SDS011;64300;45.034;38.910;2022-10-23T14:11:04;4.20;;;2.10;;
75687;SDS011;64300;45.034;38.910;2022-10-23T14:13:31;7.88;;;2.45;;
75687;SDS011;64300;45.034;38.910;2022-10-23T14:15:56;6.55;;;2.63;;
75687;SDS011;64300;45.034;38.910;2022-10-23T14:18:26;8.52;;;2.42;;
75687;SDS011;64300;45.034;38.910;2022-10-23T14:20:52;5.65;;;2.20;;
75687;SDS011;64300;45.034;38.910;2022-10-23T14:23:18;5.95;;;1.83;;
75687;SDS011;64300;45.034;38.910;2022-10-23T14:25:56;5.95;;;2.13;;
75687;SDS011;64300;45.034;38.910;2022-10-23T14:32:49;5.63;;;2.80;;
75687;SDS011;64300;45.034;38.910;2022-10-23T14:35:15;7.30;;;3.30;;
75687;SDS011;64300;45.034;38.910;2022-10-23T14:37:44;10.48;;;4.18;;
75687;SDS011;64300;45.034;38.910;2022-10-23T14:40:10;11.23;;;4.80;;
75687;SDS011;64300;45.034;38.910;2022-10-23T14:42:39;12.38;;;4.45;;
75687;SDS011;64300;45.034;38.910;2022-10-23T14:45:08;12.40;;;4.57;;
75687;SDS011;64300;45.034;38.910;2022-10-23T14:47:38;10.07;;;4.68;;
75687;SDS011;64300;45.034;38.910;2022-10-23T14:50:04;9.90;;;4.00;;
75687;SDS011;64300;45.034;38.910;2022-10-23T14:52:33;17.63;;;7.40;;
75687;SDS011;64300;45.034;38.910;2022-10-23T14:57:31;13.55;;;4.15;;
75687;SDS011;64300;45.034;38.910;2022-10-23T14:59:57;8.93;;;4.03;;
75687;SDS011;64300;45.034;38.910;2022-10-23T15:02:24;11.93;;;4.82;;
75687;SDS011;64300;45.034;38.910;2022-10-23T15:04:50;9.43;;;3.92;;
75687;SDS011;64300;45.034;38.910;2022-10-23T15:07:17;11.13;;;3.53;;
75687;SDS011;64300;45.034;38.910;2022-10-23T15:09:43;10.38;;;3.60;;
75687;SDS011;64300;45.034;38.910;2022-10-23T15:16:00;10.55;;;4.63;;
75687;SDS011;64300;45.034;38.910;2022-10-23T15:18:40;8.10;;;3.05;;
75687;SDS011;64300;45.034;38.910;2022-10-23T15:21:06;5.97;;;3.03;;
75687;SDS011;64300;45.034;38.910;2022-10-23T15:23:34;9.40;;;3.13;;
75687;SDS011;64300;45.034;38.910;2022-10-23T15:26:03;7.63;;;2.63;;
75687;SDS011;64300;45.034;38.910;2022-10-23T15:28:31;8.30;;;2.70;;
75687;SDS011;64300;45.034;38.910;2022-10-23T15:30:57;8.27;;;2.80;;
75687;SDS011;64300;45.034;38.910;2022-10-23T15:33:24;10.25;;;3.70;;
75687;SDS011;64300;45.034;38.910;2022-10-23T15:35:53;13.20;;;3.25;;
75687;SDS011;64300;45.034;38.910;2022-10-23T15:38:19;9.52;;;3.15;;
75687;SDS011;64300;45.034;38.910;2022-10-23T15:40:46;7.38;;;2.80;;
75687;SDS011;64300;45.034;38.910;2022-10-23T15:43:19;5.72;;;2.20;;
75687;SDS011;64300;45.034;38.910;2022-10-23T15:45:45;4.38;;;1.70;;
75687;SDS011;64300;45.034;38.910;2022-10-23T15:50:43;4.18;;;1.80;;
75687;SDS011;64300;45.034;38.910;2022-10-23T15:53:08;5.25;;;2.00;;
75687;SDS011;64300;45.034;38.910;2022-10-23T15:55:34;3.10;;;1.45;;
75687;SDS011;64300;45.034;38.910;2022-10-23T15:58:04;5.55;;;1.88;;
75687;SDS011;64300;45.034;38.910;2022-10-23T16:00:30;4.93;;;1.95;;
75687;SDS011;64300;45.034;38.910;2022-10-23T16:03:00;6.53;;;2.30;;
75687;SDS011;64300;45.034;38.910;2022-10-23T16:05:29;8.20;;;2.80;;
75687;SDS011;64300;45.034;38.910;2022-10-23T16:07:58;6.40;;;2.42;;
75687;SDS011;64300;45.034;38.910;2022-10-23T16:10:24;9.25;;;2.83;;
75687;SDS011;64300;45.034;38.910;2022-10-23T16:12:54;13.18;;;3.47;;
75687;SDS011;64300;45.034;38.910;2022-10-23T16:15:20;8.07;;;2.63;;
75687;SDS011;64300;45.034;38.910;2022-10-23T16:17:46;5.82;;;2.17;;
75687;SDS011;64300;45.034;38.910;2022-10-23T16:20:16;5.78;;;2.35;;
75687;SDS011;64300;45.034;38.910;2022-10-23T16:22:51;7.50;;;2.00;;
75687;SDS011;64300;45.034;38.910;2022-10-23T16:25:20;3.97;;;1.67;;
75687;SDS011;64300;45.034;38.910;2022-10-23T16:27:46;4.68;;;2.10;;
75687;SDS011;64300;45.034;38.910;2022-10-23T16:30:13;5.43;;;1.90;;
75687;SDS011;64300;45.034;38.910;2022-10-23T16:32:43;6.18;;;2.20;;
75687;SDS011;64300;45.034;38.910;2022-10-23T16:38:26;5.88;;;1.80;;
75687;SDS011;64300;45.034;38.910;2022-10-23T16:40:52;6.07;;;1.65;;
75687;SDS011;64300;45.034;38.910;2022-10-23T16:43:39;3.22;;;1.50;;
75687;SDS011;64300;45.034;38.910;2022-10-23T16:46:16;5.22;;;1.90;;
75687;SDS011;64300;45.034;38.910;2022-10-23T16:48:44;6.95;;;1.58;;
75687;SDS011;64300;45.034;38.910;2022-10-23T16:51:15;5.07;;;1.77;;
75687;SDS011;64300;45.034;38.910;2022-10-23T16:53:43;3.85;;;1.60;;
75687;SDS011;64300;45.034;38.910;2022-10-23T16:56:11;3.17;;;1.45;;
75687;SDS011;64300;45.034;38.910;2022-10-23T16:58:39;4.30;;;1.73;;
75687;SDS011;64300;45.034;38.910;2022-10-23T17:01:10;3.65;;;1.23;;
75687;SDS011;64300;45.034;38.910;2022-10-23T17:03:41;3.40;;;1.50;;
75687;SDS011;64300;45.034;38.910;2022-10-23T17:06:10;4.15;;;1.27;;
75687;SDS011;64300;45.034;38.910;2022-10-23T17:08:40;3.78;;;1.50;;
75687;SDS011;64300;45.034;38.910;2022-10-23T17:11:08;6.10;;;1.45;;
75687;SDS011;64300;45.034;38.910;2022-10-23T17:13:38;4.47;;;1.50;;
75687;SDS011;64300;45.034;38.910;2022-10-23T17:16:17;3.10;;;1.30;;
75687;SDS011;64300;45.034;38.910;2022-10-23T17:18:49;3.22;;;1.38;;
75687;SDS011;64300;45.034;38.910;2022-10-23T17:21:16;3.28;;;1.25;;
75687;SDS011;64300;45.034;38.910;2022-10-23T17:23:44;3.92;;;1.60;;
75687;SDS011;64300;45.034;38.910;2022-10-23T17:26:13;4.20;;;1.63;;
75687;SDS011;64300;45.034;38.910;2022-10-23T17:28:42;6.03;;;1.65;;
75687;SDS011;64300;45.034;38.910;2022-10-23T17:31:16;5.45;;;1.35;;
75687;SDS011;64300;45.034;38.910;2022-10-23T17:33:44;5.28;;;1.80;;
75687;SDS011;64300;45.034;38.910;2022-10-23T17:36:12;5.70;;;2.17;;
75687;SDS011;64300;45.034;38.910;2022-10-23T17:38:42;6.70;;;2.55;;
75687;SDS011;64300;45.034;38.910;2022-10-23T17:41:08;8.48;;;3.25;;
75687;SDS011;64300;45.034;38.910;2022-10-23T17:43:35;11.88;;;3.40;;
75687;SDS011;64300;45.034;38.910;2022-10-23T17:46:04;7.15;;;3.15;;
75687;SDS011;64300;45.034;38.910;2022-10-23T17:48:32;10.57;;;3.80;;
75687;SDS011;64300;45.034;38.910;2022-10-23T17:51:00;12.40;;;4.50;;
75687;SDS011;64300;45.034;38.910;2022-10-23T17:53:26;13.48;;;5.15;;
75687;SDS011;64300;45.034;38.910;2022-10-23T17:55:52;14.27;;;5.57;;
75687;SDS011;64300;45.034;38.910;2022-10-23T17:58:18;11.75;;;4.95;;
75687;SDS011;64300;45.034;38.910;2022-10-23T18:00:44;14.82;;;5.75;;
75687;SDS011;64300;45.034;38.910;2022-10-23T18:03:10;13.82;;;5.20;;
75687;SDS011;64300;45.034;38.910;2022-10-23T18:05:35;8.82;;;4.70;;
75687;SDS011;64300;45.034;38.910;2022-10-23T18:08:01;12.05;;;4.63;;
75687;SDS011;64300;45.034;38.910;2022-10-23T18:10:28;13.52;;;4.57;;
75687;SDS011;64300;45.034;38.910;2022-10-23T18:12:54;12.90;;;4.80;;